createdAt,value
2023-05-02T00:00:04.199Z,98515.00
2023-05-02T00:02:32.383Z,98516.00
2023-05-02T00:05:00.604Z,98506.00
2023-05-02T00:07:30.124Z,98508.00
2023-05-02T00:09:58.442Z,98504.00
2023-05-02T00:12:26.978Z,98510.00
2023-05-02T00:14:55.021Z,98496.00
2023-05-02T00:17:23.132Z,98492.00
2023-05-02T00:19:51.214Z,98495.00
2023-05-02T00:22:19.262Z,98500.00
2023-05-02T00:24:48.687Z,98493.00
2023-05-02T00:27:17.364Z,98488.00
2023-05-02T00:29:45.834Z,98492.00
2023-05-02T00:32:14.008Z,98481.00
2023-05-02T00:34:42.232Z,98491.00
2023-05-02T00:37:10.301Z,98486.00
2023-05-02T00:39:38.356Z,98485.00
2023-05-02T00:42:07.774Z,98482.00
2023-05-02T00:44:35.812Z,98477.00
2023-05-02T00:47:03.914Z,98478.00
2023-05-02T00:49:32.523Z,98484.00
2023-05-02T00:52:00.906Z,98486.00
2023-05-02T00:54:29.010Z,98490.00
2023-05-02T00:56:57.577Z,98485.00
2023-05-02T00:59:27.153Z,98490.00
2023-05-02T01:01:59.240Z,98492.00
2023-05-02T01:04:33.158Z,98486.00
2023-05-02T01:07:07.587Z,98480.00
2023-05-02T01:09:41.182Z,98494.00
2023-05-02T01:12:13.758Z,98494.00
2023-05-02T01:14:44.219Z,98490.00
2023-05-02T01:17:13.391Z,98494.00
2023-05-02T01:19:42.877Z,98492.00
2023-05-02T01:22:11.818Z,98494.00
2023-05-02T01:24:44.099Z,98498.00
2023-05-02T01:27:17.200Z,98480.00
2023-05-02T01:29:46.959Z,98497.00
2023-05-02T01:32:15.188Z,98499.00
2023-05-02T01:34:43.307Z,98502.00
2023-05-02T01:37:12.415Z,98499.00
2023-05-02T01:39:40.592Z,98502.00
2023-05-02T01:42:08.646Z,98505.00
2023-05-02T01:44:36.858Z,98508.00
2023-05-02T01:47:08.012Z,98506.00
2023-05-02T01:49:36.097Z,98513.00
2023-05-02T01:52:05.960Z,98518.00
2023-05-02T01:54:34.828Z,98522.00
2023-05-02T01:57:03.906Z,98515.00
2023-05-02T01:59:31.955Z,98520.00
2023-05-02T02:02:00.009Z,98517.00
2023-05-02T02:04:29.753Z,98516.00
2023-05-02T02:06:59.589Z,98535.00
2023-05-02T02:09:27.692Z,98534.00
2023-05-02T02:11:59.691Z,98518.00
2023-05-02T02:14:27.827Z,98547.00
2023-05-02T02:16:57.681Z,98543.00
2023-05-02T02:19:25.787Z,98552.00
2023-05-02T02:21:55.247Z,98557.00
2023-05-02T02:24:23.283Z,98557.00
2023-05-02T02:26:52.350Z,98550.00
2023-05-02T02:29:20.515Z,98551.00
2023-05-02T02:31:48.543Z,98556.00
2023-05-02T02:34:16.576Z,98573.00
2023-05-02T02:36:47.053Z,98564.00
2023-05-02T02:39:22.603Z,98557.00
2023-05-02T02:41:54.426Z,98562.00
2023-05-02T02:44:28.295Z,98566.00
2023-05-02T02:47:02.640Z,98568.00
2023-05-02T02:49:34.554Z,98564.00
2023-05-02T02:52:06.677Z,98560.00
2023-05-02T02:54:38.548Z,98564.00
2023-05-02T02:57:09.038Z,98562.00
2023-05-02T02:59:41.355Z,98562.00
2023-05-02T03:02:10.048Z,98568.00
2023-05-02T03:04:40.023Z,98574.00
2023-05-02T03:07:08.164Z,98564.00
2023-05-02T03:09:44.151Z,98577.00
2023-05-02T03:12:13.061Z,98586.00
2023-05-02T03:14:41.240Z,98590.00
2023-05-02T03:17:09.384Z,98591.00
2023-05-02T03:19:37.465Z,98586.00
2023-05-02T03:22:05.564Z,98594.00
2023-05-02T03:24:33.706Z,98600.00
2023-05-02T03:27:03.127Z,98598.00
2023-05-02T03:29:31.276Z,98604.00
2023-05-02T03:31:59.389Z,98599.00
2023-05-02T03:34:27.718Z,98609.00
2023-05-02T03:36:55.747Z,98604.00
2023-05-02T03:39:23.777Z,98619.00
2023-05-02T03:41:51.816Z,98613.00
2023-05-02T03:44:21.332Z,98605.00
2023-05-02T03:46:49.449Z,98607.00
2023-05-02T03:49:19.566Z,98613.00
2023-05-02T03:51:47.702Z,98618.00
2023-05-02T03:54:15.769Z,98621.00
2023-05-02T03:56:45.058Z,98625.00
2023-05-02T03:59:13.199Z,98620.00
2023-05-02T04:01:42.869Z,98619.00
2023-05-02T04:04:11.496Z,98628.00
2023-05-02T04:06:39.734Z,98623.00
2023-05-02T04:09:07.983Z,98635.00
2023-05-02T04:11:36.041Z,98631.00
2023-05-02T04:14:04.469Z,98642.00
2023-05-02T04:16:32.680Z,98642.00
2023-05-02T04:19:02.159Z,98637.00
2023-05-02T04:21:30.215Z,98634.00
2023-05-02T04:23:58.488Z,98645.00
2023-05-02T04:26:26.916Z,98660.00
2023-05-02T04:28:55.016Z,98656.00
2023-05-02T04:31:23.101Z,98657.00
2023-05-02T04:33:51.185Z,98670.00
2023-05-02T04:36:20.611Z,98667.00
2023-05-02T04:38:48.752Z,98668.00
2023-05-02T04:41:17.542Z,98676.00
2023-05-02T04:43:45.636Z,98676.00
2023-05-02T04:46:14.708Z,98678.00
2023-05-02T04:48:42.842Z,98677.00
2023-05-02T04:51:10.958Z,98676.00
2023-05-02T04:53:40.390Z,98686.00
2023-05-02T04:56:08.905Z,98688.00
2023-05-02T04:58:36.969Z,98692.00
2023-05-02T05:01:05.041Z,98683.00
2023-05-02T05:03:33.561Z,98694.00
2023-05-02T05:06:02.467Z,98690.00
2023-05-02T05:08:30.836Z,98696.00
2023-05-02T05:11:00.244Z,98697.00
2023-05-02T05:13:28.488Z,98696.00
2023-05-02T05:15:57.095Z,98708.00
2023-05-02T05:18:26.090Z,98713.00
2023-05-02T05:20:54.193Z,98717.00
2023-05-02T05:23:22.245Z,98716.00
2023-05-02T05:25:50.276Z,98721.00
2023-05-02T05:28:19.824Z,98717.00
2023-05-02T05:30:47.884Z,98729.00
2023-05-02T05:33:16.112Z,98728.00
2023-05-02T05:35:44.233Z,98737.00
2023-05-02T05:38:12.248Z,98731.00
2023-05-02T05:40:40.233Z,98741.00
2023-05-02T05:43:08.983Z,98738.00
2023-05-02T05:45:38.467Z,98740.00
2023-05-02T05:48:07.432Z,98753.00
2023-05-02T05:50:35.535Z,98760.00
2023-05-02T05:53:03.569Z,98760.00
2023-05-02T05:55:31.638Z,98769.00
2023-05-02T05:57:59.648Z,98763.00
2023-05-02T06:00:27.811Z,98772.00
2023-05-02T06:02:57.473Z,98770.00
2023-05-02T06:05:25.758Z,98776.00
2023-05-02T06:07:53.802Z,98786.00
2023-05-02T06:10:22.355Z,98774.00
2023-05-02T06:12:50.401Z,98777.00
2023-05-02T06:15:18.595Z,98781.00
2023-05-02T06:17:46.638Z,98791.00
2023-05-02T06:20:16.717Z,98799.00
2023-05-02T06:22:46.730Z,98828.00
2023-05-02T06:25:15.136Z,98808.00
2023-05-02T06:27:43.346Z,98745.00
2023-05-02T06:30:12.205Z,98818.00
2023-05-02T06:32:42.500Z,98817.00
2023-05-02T06:35:13.904Z,98832.00
2023-05-02T06:37:43.902Z,98827.00
2023-05-02T06:40:13.571Z,98795.00
2023-05-02T06:42:41.720Z,98814.00
2023-05-02T06:45:10.321Z,98818.00
2023-05-02T06:47:38.370Z,98825.00
2023-05-02T06:50:08.030Z,98824.00
2023-05-02T06:52:36.050Z,98839.00
2023-05-02T06:55:06.585Z,98804.00
2023-05-02T06:57:34.730Z,98815.00
2023-05-02T07:00:03.568Z,98857.00
2023-05-02T07:02:32.206Z,98818.00
2023-05-02T07:05:00.549Z,98826.00
2023-05-02T07:07:28.557Z,98842.00
2023-05-02T07:09:56.533Z,98856.00
2023-05-02T07:12:26.949Z,98845.00
2023-05-02T07:14:55.080Z,98854.00
2023-05-02T07:17:23.598Z,98838.00
2023-05-02T07:19:51.808Z,98828.00
2023-05-02T07:22:20.209Z,98871.00
2023-05-02T07:24:48.334Z,98831.00
2023-05-02T07:27:16.607Z,98856.00
2023-05-02T07:29:46.024Z,98868.00
2023-05-02T07:32:14.110Z,98894.00
2023-05-02T07:34:42.774Z,98873.00
2023-05-02T07:37:11.791Z,98866.00
2023-05-02T07:39:40.064Z,98841.00
2023-05-02T07:42:08.120Z,98869.00
2023-05-02T07:44:36.971Z,98865.00
2023-05-02T07:47:06.425Z,98866.00
2023-05-02T07:49:34.529Z,98876.00
2023-05-02T07:52:02.569Z,98884.00
2023-05-02T07:54:32.757Z,98881.00
2023-05-02T07:57:03.414Z,98887.00
2023-05-02T07:59:32.072Z,98890.00
2023-05-02T08:02:00.198Z,98886.00
2023-05-02T08:04:29.800Z,98892.00
2023-05-02T08:06:58.197Z,98893.00
2023-05-02T08:09:26.308Z,98889.00
2023-05-02T08:11:54.412Z,98884.00
2023-05-02T08:14:22.572Z,98886.00
2023-05-02T08:16:53.891Z,98891.00
2023-05-02T08:19:21.954Z,98892.00
2023-05-02T08:21:51.472Z,98902.00
2023-05-02T08:24:19.533Z,98902.00
2023-05-02T08:26:47.640Z,98899.00
2023-05-02T08:29:15.684Z,98896.00
2023-05-02T08:31:43.749Z,98898.00
2023-05-02T08:34:11.829Z,98900.00
2023-05-02T08:36:39.872Z,98895.00
2023-05-02T08:39:09.430Z,98900.00
2023-05-02T08:41:37.520Z,98894.00
2023-05-02T08:44:06.708Z,98901.00
2023-05-02T08:46:36.790Z,98892.00
2023-05-02T08:49:04.866Z,98902.00
2023-05-02T08:51:33.668Z,98901.00
2023-05-02T08:54:01.744Z,98908.00
2023-05-02T08:56:31.205Z,98913.00
2023-05-02T08:58:59.285Z,98912.00
2023-05-02T09:01:30.168Z,98925.00
2023-05-02T09:03:59.259Z,98921.00
2023-05-02T09:06:28.185Z,98915.00
2023-05-02T09:08:56.306Z,98922.00
2023-05-02T09:11:24.376Z,98923.00
2023-05-02T09:13:53.827Z,98927.00
2023-05-02T09:16:22.867Z,98933.00
2023-05-02T09:18:51.552Z,98925.00
2023-05-02T09:21:21.374Z,98931.00
2023-05-02T09:23:50.274Z,98929.00
2023-05-02T09:26:19.628Z,98929.00
2023-05-02T09:28:48.383Z,98932.00
2023-05-02T09:31:26.936Z,98928.00
2023-05-02T09:34:06.031Z,98935.00
2023-05-02T09:36:34.225Z,98926.00
2023-05-02T09:39:11.244Z,98934.00
2023-05-02T09:41:42.883Z,98940.00
2023-05-02T09:44:11.374Z,98930.00
2023-05-02T09:46:44.864Z,98928.00
2023-05-02T09:49:14.751Z,98942.00
2023-05-02T09:51:44.147Z,98932.00
2023-05-02T09:54:12.496Z,98940.00
2023-05-02T09:56:53.714Z,98939.00
2023-05-02T09:59:21.807Z,98940.00
2023-05-02T10:01:57.022Z,98941.00
2023-05-02T10:04:25.229Z,98943.00
2023-05-02T10:06:53.707Z,98942.00
2023-05-02T10:09:22.063Z,98940.00
2023-05-02T10:11:52.770Z,98937.00
2023-05-02T10:14:21.551Z,98944.00
2023-05-02T10:16:55.081Z,98938.00
2023-05-02T10:19:25.913Z,98937.00
2023-05-02T10:21:54.049Z,98935.00
2023-05-02T10:24:22.226Z,98942.00
2023-05-02T10:26:50.309Z,98947.00
2023-05-02T10:29:18.324Z,98949.00
2023-05-02T10:31:46.472Z,98945.00
2023-05-02T10:34:14.620Z,98941.00
2023-05-02T10:36:44.187Z,98939.00
2023-05-02T10:39:12.256Z,98935.00
2023-05-02T10:41:40.952Z,98936.00
2023-05-02T10:44:09.047Z,98926.00
2023-05-02T10:46:38.844Z,98931.00
2023-05-02T10:49:07.587Z,98936.00
2023-05-02T10:51:36.292Z,98928.00
2023-05-02T10:54:26.340Z,98924.00
2023-05-02T10:57:07.813Z,98926.00
2023-05-02T10:59:37.279Z,98920.00
2023-05-02T11:02:07.107Z,98926.00
2023-05-02T11:05:01.661Z,98931.00
2023-05-02T11:07:30.414Z,98927.00
2023-05-02T11:10:27.465Z,98929.00
2023-05-02T11:12:56.154Z,98931.00
2023-05-02T11:16:00.027Z,98934.00
2023-05-02T11:18:28.147Z,98927.00
2023-05-02T11:20:56.188Z,98937.00
2023-05-02T11:23:26.046Z,98946.00
2023-05-02T11:25:56.735Z,98970.00
2023-05-02T11:28:41.596Z,98975.00
2023-05-02T11:31:45.056Z,98978.00
2023-05-02T11:34:13.170Z,98993.00
2023-05-02T11:36:41.193Z,99004.00
2023-05-02T11:39:19.659Z,99000.00
2023-05-02T11:41:51.099Z,99006.00
2023-05-02T11:44:19.287Z,99013.00
2023-05-02T11:46:47.628Z,98997.00
2023-05-02T11:49:15.757Z,99018.00
2023-05-02T11:51:43.783Z,99018.00
2023-05-02T11:54:19.570Z,99019.00
2023-05-02T11:56:52.426Z,99004.00
2023-05-02T11:59:20.461Z,99008.00
2023-05-02T12:01:49.344Z,99002.00
2023-05-02T12:04:21.890Z,98993.00
2023-05-02T12:06:56.662Z,98987.00
2023-05-02T12:09:24.729Z,98994.00
2023-05-02T12:11:55.581Z,99006.00
2023-05-02T12:14:30.093Z,99010.00
2023-05-02T12:16:59.287Z,99005.00
2023-05-02T12:19:27.760Z,99012.00
2023-05-02T12:21:55.849Z,99011.00
2023-05-02T12:24:23.944Z,99008.00
2023-05-02T12:26:53.066Z,99008.00
2023-05-02T12:29:22.502Z,99016.00
2023-05-02T12:31:53.660Z,99011.00
2023-05-02T12:34:34.016Z,99026.00
2023-05-02T12:37:02.693Z,99018.00
2023-05-02T12:39:37.212Z,99019.00
2023-05-02T12:42:12.278Z,99025.00
2023-05-02T12:44:42.248Z,99025.00
2023-05-02T12:47:11.587Z,99032.00
2023-05-02T12:49:52.508Z,99018.00
2023-05-02T12:52:20.640Z,99024.00
2023-05-02T12:54:48.705Z,99016.00
2023-05-02T12:57:26.629Z,99019.00
2023-05-02T12:59:56.040Z,99016.00
2023-05-02T13:02:24.061Z,99008.00
2023-05-02T13:04:52.883Z,99023.00
2023-05-02T13:07:23.950Z,99004.00
2023-05-02T13:09:52.576Z,99009.00
2023-05-02T13:12:20.631Z,99007.00
2023-05-02T13:14:48.820Z,99014.00
2023-05-02T13:17:18.458Z,99009.00
2023-05-02T13:19:57.827Z,99004.00
2023-05-02T13:22:28.742Z,99001.00
2023-05-02T13:24:57.042Z,99005.00
2023-05-02T13:27:25.253Z,99004.00
2023-05-02T13:29:53.606Z,99000.00
2023-05-02T13:32:23.119Z,99002.00
2023-05-02T13:34:51.153Z,99003.00
2023-05-02T13:37:19.167Z,98979.00
2023-05-02T13:39:47.169Z,99005.00
2023-05-02T13:42:15.187Z,98989.00
2023-05-02T13:44:43.236Z,98992.00
2023-05-02T13:47:11.228Z,98986.00
2023-05-02T13:49:40.706Z,98990.00
2023-05-02T13:52:08.781Z,98989.00
2023-05-02T13:54:36.777Z,98991.00
2023-05-02T13:57:05.586Z,98987.00
2023-05-02T13:59:33.751Z,98994.00
2023-05-02T14:02:01.949Z,98989.00
2023-05-02T14:04:30.218Z,98985.00
2023-05-02T14:06:59.574Z,98985.00
2023-05-02T14:09:27.782Z,98973.00
2023-05-02T14:11:56.593Z,98985.00
2023-05-02T14:14:24.584Z,98995.00
2023-05-02T14:16:56.010Z,98986.00
2023-05-02T14:19:24.062Z,98980.00
2023-05-02T14:21:52.117Z,98985.00
2023-05-02T14:24:21.583Z,98988.00
2023-05-02T14:26:49.577Z,98991.00
2023-05-02T14:29:18.561Z,98977.00
2023-05-02T14:31:47.281Z,98983.00
2023-05-02T14:34:15.388Z,98981.00
2023-05-02T14:36:43.407Z,98983.00
2023-05-02T14:39:11.396Z,98985.00
2023-05-02T14:41:40.889Z,98981.00
2023-05-02T14:44:08.951Z,98977.00
2023-05-02T14:46:37.070Z,98973.00
2023-05-02T14:49:05.278Z,98975.00
2023-05-02T14:51:33.534Z,98994.00
2023-05-02T14:54:01.538Z,98978.00
2023-05-02T14:56:29.648Z,98987.00
2023-05-02T14:58:59.079Z,98989.00
2023-05-02T15:01:27.155Z,98983.00
2023-05-02T15:06:30.219Z,98991.00
2023-05-02T15:08:58.409Z,99001.00
2023-05-02T15:11:26.804Z,98990.00
2023-05-02T15:13:56.612Z,98989.00
2023-05-02T15:16:27.858Z,98976.00
2023-05-02T15:18:55.911Z,98985.00
2023-05-02T15:21:23.936Z,98977.00
2023-05-02T15:23:52.031Z,98979.00
2023-05-02T15:26:20.251Z,98983.00
2023-05-02T15:28:48.282Z,98988.00
2023-05-02T15:31:16.355Z,98987.00
2023-05-02T15:33:45.731Z,98984.00
2023-05-02T15:36:14.306Z,98999.00
2023-05-02T15:38:42.916Z,98982.00
2023-05-02T15:41:11.598Z,99003.00
2023-05-02T15:43:39.689Z,99007.00
2023-05-02T15:46:07.725Z,99016.00
2023-05-02T15:48:35.853Z,99019.00
2023-05-02T15:51:06.557Z,99012.00
2023-05-02T15:53:35.126Z,99019.00
2023-05-02T15:56:03.214Z,99026.00
2023-05-02T15:58:31.294Z,99020.00
2023-05-02T16:00:59.302Z,99023.00
2023-05-02T16:03:27.563Z,99030.00
2023-05-02T16:05:57.991Z,99031.00
2023-05-02T16:08:28.236Z,99036.00
2023-05-02T16:10:57.921Z,99040.00
2023-05-02T16:13:26.110Z,99041.00
2023-05-02T16:15:54.212Z,99037.00
2023-05-02T16:18:23.227Z,99036.00
2023-05-02T16:20:52.900Z,99050.00
2023-05-02T16:23:22.227Z,99042.00
2023-05-02T16:25:51.843Z,99044.00
2023-05-02T16:28:19.945Z,99049.00
2023-05-02T16:30:50.402Z,99044.00
2023-05-02T16:33:18.434Z,99052.00
2023-05-02T16:35:46.419Z,99051.00
2023-05-02T16:38:14.438Z,99042.00
2023-05-02T16:40:42.739Z,99042.00
2023-05-02T16:43:12.147Z,99049.00
2023-05-02T16:45:40.199Z,99044.00
2023-05-02T16:48:08.362Z,99052.00
2023-05-02T16:50:36.501Z,99049.00
2023-05-02T16:53:04.553Z,99053.00
2023-05-02T16:55:32.563Z,99056.00
2023-05-02T16:58:00.732Z,99055.00
2023-05-02T17:00:31.982Z,99071.00
2023-05-02T17:03:01.149Z,99071.00
2023-05-02T17:05:31.333Z,99077.00
2023-05-02T17:07:59.418Z,99084.00
2023-05-02T17:10:27.458Z,99090.00
2023-05-02T17:12:56.108Z,99091.00
2023-05-02T17:15:24.131Z,99089.00
2023-05-02T17:17:53.600Z,99095.00
2023-05-02T17:20:21.640Z,99097.00
2023-05-02T17:22:49.660Z,99092.00
2023-05-02T17:25:17.763Z,99103.00
2023-05-02T17:27:45.803Z,99102.00
2023-05-02T17:30:15.270Z,99106.00
2023-05-02T17:32:43.395Z,99106.00
2023-05-02T17:35:14.149Z,99108.00
2023-05-02T17:37:42.840Z,99115.00
2023-05-02T17:40:12.308Z,99116.00
2023-05-02T17:42:40.493Z,99132.00
2023-05-02T17:45:10.048Z,99121.00
2023-05-02T17:47:38.161Z,99134.00
2023-05-02T17:50:07.866Z,99139.00
2023-05-02T17:52:37.397Z,99149.00
2023-05-02T17:55:06.779Z,99142.00
2023-05-02T17:57:34.924Z,99136.00
2023-05-02T18:00:07.394Z,99145.00
2023-05-02T18:02:37.444Z,99155.00
2023-05-02T18:05:06.967Z,99156.00
2023-05-02T18:07:34.999Z,99156.00
2023-05-02T18:10:05.417Z,99155.00
2023-05-02T18:12:33.778Z,99159.00
2023-05-02T18:15:05.906Z,99168.00
2023-05-02T18:17:34.467Z,99167.00
2023-05-02T18:20:04.499Z,99171.00
2023-05-02T18:22:33.651Z,99174.00
2023-05-02T18:25:01.932Z,99175.00
2023-05-02T18:27:31.682Z,99177.00
2023-05-02T18:29:59.870Z,99174.00
2023-05-02T18:32:27.977Z,99175.00
2023-05-02T18:34:56.533Z,99183.00
2023-05-02T18:37:31.158Z,99198.00
2023-05-02T18:39:59.286Z,99197.00
2023-05-02T18:42:27.300Z,99199.00
2023-05-02T18:44:56.820Z,99205.00
2023-05-02T18:47:25.504Z,99207.00
2023-05-02T18:49:56.324Z,99214.00
2023-05-02T18:52:24.739Z,99221.00
2023-05-02T18:54:52.860Z,99224.00
2023-05-02T18:57:21.659Z,99235.00
2023-05-02T18:59:49.692Z,99229.00
2023-05-02T19:02:19.140Z,99239.00
2023-05-02T19:04:47.340Z,99234.00
2023-05-02T19:07:15.640Z,99243.00
2023-05-02T19:09:43.782Z,99243.00
2023-05-02T19:12:11.822Z,99246.00
2023-05-02T19:14:40.881Z,99259.00
2023-05-02T19:17:08.917Z,99262.00
2023-05-02T19:19:38.354Z,99261.00
2023-05-02T19:22:06.686Z,99259.00
2023-05-02T19:24:34.796Z,99264.00
2023-05-02T19:27:05.848Z,99266.00
2023-05-02T19:29:33.965Z,99266.00
2023-05-02T19:32:02.157Z,99268.00
2023-05-02T19:34:30.319Z,99275.00
2023-05-02T19:36:59.759Z,99271.00
2023-05-02T19:39:28.474Z,99280.00
2023-05-02T19:41:56.521Z,99273.00
2023-05-02T19:44:24.728Z,99274.00
2023-05-02T19:46:52.817Z,99280.00
2023-05-02T19:49:20.939Z,99289.00
2023-05-02T19:51:49.342Z,99293.00
2023-05-02T19:54:19.242Z,99291.00
2023-05-02T19:56:48.871Z,99294.00
2023-05-02T19:59:17.075Z,99322.00
2023-05-02T20:01:46.902Z,99299.00
2023-05-02T20:04:15.116Z,99310.00
2023-05-02T20:06:43.440Z,99314.00
2023-05-02T20:09:11.630Z,99318.00
2023-05-02T20:11:41.061Z,99326.00
2023-05-02T20:14:09.123Z,99327.00
2023-05-02T20:16:37.277Z,99337.00
2023-05-02T20:19:05.389Z,99333.00
2023-05-02T20:21:33.490Z,99335.00
2023-05-02T20:24:01.548Z,99335.00
2023-05-02T20:26:31.257Z,99343.00
2023-05-02T20:29:00.862Z,99346.00
2023-05-02T20:31:29.022Z,99343.00
2023-05-02T20:33:57.259Z,99342.00
2023-05-02T20:36:25.853Z,99354.00
2023-05-02T20:38:53.887Z,99354.00
2023-05-02T20:41:23.927Z,99356.00
2023-05-02T20:43:51.974Z,99353.00
2023-05-02T20:46:21.695Z,99360.00
2023-05-02T20:48:49.906Z,99361.00
2023-05-02T20:51:17.970Z,99363.00
2023-05-02T20:53:46.015Z,99357.00
2023-05-02T20:56:14.017Z,99365.00
2023-05-02T20:58:42.135Z,99370.00
2023-05-02T21:01:10.829Z,99365.00
2023-05-02T21:03:41.253Z,99380.00
2023-05-02T21:06:09.648Z,99373.00
2023-05-02T21:08:37.710Z,99371.00
2023-05-02T21:11:13.656Z,99379.00
2023-05-02T21:13:41.834Z,99374.00
2023-05-02T21:16:16.774Z,99379.00
2023-05-02T21:18:46.465Z,99385.00
2023-05-02T21:21:14.618Z,99383.00
2023-05-02T21:23:44.543Z,99381.00
2023-05-02T21:26:12.563Z,99392.00
2023-05-02T21:28:40.772Z,99375.00
2023-05-02T21:31:08.904Z,99380.00
2023-05-02T21:33:36.993Z,99380.00
2023-05-02T21:36:07.295Z,99386.00
2023-05-02T21:38:35.474Z,99384.00
2023-05-02T21:41:03.969Z,99382.00
2023-05-02T21:43:32.768Z,99391.00
2023-05-02T21:46:01.096Z,99399.00
2023-05-02T21:48:29.171Z,99399.00
2023-05-02T21:50:57.270Z,99396.00
2023-05-02T21:53:27.623Z,99393.00
2023-05-02T21:55:55.887Z,99393.00
2023-05-02T21:58:24.037Z,99385.00
2023-05-02T22:00:52.081Z,99398.00
2023-05-02T22:03:20.369Z,99392.00
2023-05-02T22:05:49.923Z,99387.00
2023-05-02T22:08:18.156Z,99383.00
2023-05-02T22:10:47.896Z,99387.00
2023-05-02T22:13:16.153Z,99399.00
2023-05-02T22:15:45.524Z,99396.00
2023-05-02T22:18:14.209Z,99399.00
2023-05-02T22:20:42.287Z,99394.00
2023-05-02T22:23:10.399Z,99397.00
2023-05-02T22:25:43.251Z,99406.00
2023-05-02T22:28:13.618Z,99408.00
2023-05-02T22:30:42.898Z,99406.00
2023-05-02T22:33:11.078Z,99398.00
2023-05-02T22:35:39.238Z,99407.00
2023-05-02T22:38:08.876Z,99399.00
2023-05-02T22:40:36.929Z,99398.00
2023-05-02T22:43:05.046Z,99402.00
2023-05-02T22:45:34.800Z,99411.00
2023-05-02T22:48:03.080Z,99406.00
2023-05-02T22:50:31.143Z,99414.00
2023-05-02T22:52:59.806Z,99418.00
2023-05-02T22:55:27.835Z,99402.00
2023-05-02T22:57:55.889Z,99412.00
2023-05-02T23:00:25.226Z,99409.00
2023-05-02T23:02:54.695Z,99404.00
2023-05-02T23:05:22.960Z,99400.00
2023-05-02T23:07:50.987Z,99410.00
2023-05-02T23:10:19.072Z,99411.00
2023-05-02T23:12:47.167Z,99398.00
2023-05-02T23:15:15.225Z,99400.00
2023-05-02T23:17:43.570Z,99412.00
2023-05-02T23:20:13.608Z,99411.00
2023-05-02T23:22:45.922Z,99413.00
2023-05-02T23:25:14.870Z,99414.00
2023-05-02T23:27:42.988Z,99418.00
2023-05-02T23:30:11.528Z,99405.00
2023-05-02T23:32:39.690Z,99403.00
2023-05-02T23:35:08.830Z,99398.00
2023-05-02T23:37:38.351Z,99401.00
2023-05-02T23:40:09.304Z,99394.00
2023-05-02T23:42:40.301Z,99392.00
2023-05-02T23:45:09.537Z,99403.00
2023-05-02T23:47:37.846Z,99411.00
2023-05-02T23:50:06.459Z,99402.00
2023-05-02T23:52:34.614Z,99409.00
2023-05-02T23:55:04.283Z,99413.00
2023-05-02T23:57:32.342Z,99407.00
